Greenwood Lake (4N1)
West Milford, NJ
Field Elevation: 791
Lat: 41°07.70N  Long: 74°20.79W
CTAF/Unicom Freq: 122.9000
   
    
Weather Advisories
2017-03-01   18:01 Z
Altimeter 29.55" Hg
Wind 240° @ 10 KT
Gusts 17 KT
Visibility 10 SM
Ceiling OVC010
Temperature 16° C (61° F)
Dewpoint 16° C (61° F)
Relative Humidity 100%
Density Altitude --
Condensation Altitude --
Wind and Runways
Indicated Runway = 24
Headwind = 10 kt
Crosswind = 0 kt
History
 
 
 
More Info
NOAA Forecast
 
 
About Us
Belfort Instrument
 
 
FAA Disclaimer: The data displayed is for advisory purposes only and is not to be used for flight planning or operations. For official data, please call (not available) to hear the current automated AWOS voice message.
  METAR 4N1 011801Z AUTO 24010G17KT 10 SM OVC010 16/16 A2955